Time;durP1;ratioP1;P1;durP2;ratioP2;P2;SDS_P1;SDS_P2;PMS_P1;PMS_P2;Temp;Humidity;BMP_temperature;BMP_pressure;BME280_temperature;BME280_humidity;BME280_pressure;Samples;Min_cycle;Max_cycle;Signal;HPM_P1;HPM_P2
2022/09/25 00:00:20;;;;;;;9.35;2.80;;;9.00;99.90;;;;;;5021406;28;20384;-75
2022/09/25 00:02:45;;;;;;;6.00;2.60;;;8.90;99.90;;;;;;4992805;28;20045;-74
2022/09/25 00:05:11;;;;;;;12.00;3.42;;;8.90;99.90;;;;;;5007029;28;20037;-75
2022/09/25 00:07:37;;;;;;;8.05;2.90;;;8.90;99.90;;;;;;5007237;28;20379;-75
2022/09/25 00:10:03;;;;;;;7.55;2.47;;;8.90;99.90;;;;;;5006402;28;20128;-76
2022/09/25 00:12:29;;;;;;;8.13;3.13;;;8.90;99.90;;;;;;5022720;28;20034;-75
2022/09/25 00:14:54;;;;;;;12.75;2.95;;;8.80;99.90;;;;;;4992720;28;20099;-74
2022/09/25 00:17:21;;;;;;;4.55;2.45;;;8.80;99.90;;;;;;5007166;28;20045;-75
2022/09/25 00:19:49;;;;;;;9.75;3.45;;;8.80;99.90;;;;;;5021129;28;20099;-75
2022/09/25 00:22:20;;;;;;;8.45;2.97;;;8.80;99.90;;;;;;5027901;28;20112;-75
2022/09/25 00:24:47;;;;;;;6.85;2.50;;;8.70;99.90;;;;;;5025886;28;20124;-75
2022/09/25 00:27:13;;;;;;;10.40;3.00;;;8.70;99.90;;;;;;5027388;28;20140;-75
2022/09/25 00:29:40;;;;;;;9.23;3.33;;;8.70;99.90;;;;;;5027615;28;20312;-75
2022/09/25 00:32:08;;;;;;;7.00;2.72;;;8.70;99.90;;;;;;5012681;28;20583;-75
2022/09/25 00:34:35;;;;;;;8.60;3.05;;;8.70;99.90;;;;;;5011858;28;20041;-75
2022/09/25 00:37:01;;;;;;;5.65;2.83;;;8.70;99.90;;;;;;5028803;28;20038;-75
2022/09/25 00:39:27;;;;;;;7.75;3.00;;;8.70;99.90;;;;;;5013144;28;20091;-75
2022/09/25 00:41:53;;;;;;;8.35;3.10;;;8.70;99.90;;;;;;5006396;28;20038;-75
2022/09/25 00:44:56;;;;;;;12.43;2.88;;;8.70;99.90;;;;;;5009702;28;20041;-75
2022/09/25 00:47:31;;;;;;;12.52;3.17;;;8.60;99.90;;;;;;5012330;28;20030;-75
2022/09/25 00:50:00;;;;;;;10.50;2.97;;;8.60;99.90;;;;;;5015980;28;20461;-75
2022/09/25 00:52:26;;;;;;;7.03;2.88;;;8.60;99.90;;;;;;4993079;28;20518;-75
2022/09/25 00:54:59;;;;;;;7.68;3.13;;;8.60;99.90;;;;;;5011679;28;20429;-75
2022/09/25 00:57:29;;;;;;;8.63;3.42;;;8.60;99.90;;;;;;5024841;28;20790;-75
2022/09/25 01:00:05;;;;;;;6.18;2.85;;;8.60;99.90;;;;;;5006669;28;20490;-75
2022/09/25 01:02:40;;;;;;;18.55;3.60;;;8.60;99.90;;;;;;5011453;28;20033;-75
2022/09/25 01:05:10;;;;;;;9.63;3.35;;;8.70;99.90;;;;;;5026097;28;20049;-75
2022/09/25 01:07:39;;;;;;;9.60;2.85;;;8.70;99.90;;;;;;5010688;28;20094;-75
2022/09/25 01:10:07;;;;;;;5.82;2.53;;;8.60;99.90;;;;;;5025671;28;20045;-75
2022/09/25 01:12:39;;;;;;;10.02;2.75;;;8.60;99.90;;;;;;5008221;28;20513;-75
2022/09/25 01:15:06;;;;;;;;;;;8.60;99.90;;;;;;5008651;28;20490;-74
2022/09/25 01:17:41;;;;;;;10.07;2.67;;;8.60;99.90;;;;;;5009651;28;20484;-75
2022/09/25 01:20:38;;;;;;;9.25;2.70;;;8.60;99.90;;;;;;5023038;28;20029;-75
2022/09/25 01:23:29;;;;;;;8.73;3.25;;;8.50;99.90;;;;;;5027209;28;20037;-74
2022/09/25 01:26:42;;;;;;;6.95;2.60;;;8.50;99.90;;;;;;5027189;28;20029;-75
2022/09/25 01:29:37;;;;;;;6.55;2.60;;;8.50;99.90;;;;;;5010520;28;20550;-75
2022/09/25 01:32:09;;;;;;;9.50;3.10;;;8.50;99.90;;;;;;5023805;28;20045;-75
2022/09/25 01:34:39;;;;;;;;;;;8.50;99.90;;;;;;5025845;28;20526;-75
2022/09/25 01:37:19;;;;;;;11.00;3.30;;;8.50;99.90;;;;;;5009404;28;19917;-75
2022/09/25 01:40:06;;;;;;;6.15;3.20;;;8.50;99.90;;;;;;5009232;28;20053;-75
2022/09/25 01:42:43;;;;;;;7.25;2.72;;;8.40;99.90;;;;;;5012884;28;20139;-75
2022/09/25 01:45:16;;;;;;;10.77;3.58;;;8.40;99.90;;;;;;5026170;28;20112;-75
2022/09/25 01:47:47;;;;;;;5.88;2.92;;;8.40;99.90;;;;;;5007708;28;20060;-75
2022/09/25 01:50:54;;;;;;;8.23;3.00;;;8.40;99.90;;;;;;4991834;28;20046;-74
2022/09/25 01:53:24;;;;;;;10.48;3.05;;;8.30;99.90;;;;;;5007283;28;20067;-75
2022/09/25 01:55:56;;;;;;;11.05;2.75;;;8.30;99.90;;;;;;5025346;28;20422;-75
2022/09/25 01:58:30;;;;;;;7.68;3.05;;;8.30;99.90;;;;;;5006907;28;20037;-75
2022/09/25 02:01:13;;;;;;;11.80;3.53;;;8.30;99.90;;;;;;5010329;28;20091;-75
2022/09/25 02:04:11;;;;;;;10.73;3.10;;;8.30;99.90;;;;;;5024135;28;20034;-75
2022/09/25 02:06:39;;;;;;;10.10;3.42;;;8.20;99.90;;;;;;5024767;28;20072;-75
2022/09/25 02:09:32;;;;;;;8.43;3.67;;;8.20;99.90;;;;;;5008431;28;20457;-75
2022/09/25 02:12:03;;;;;;;6.55;3.35;;;8.20;99.90;;;;;;5020842;28;20045;-75
2022/09/25 02:14:37;;;;;;;10.63;3.40;;;8.20;99.90;;;;;;5011533;28;20037;-74
2022/09/25 02:17:09;;;;;;;7.78;3.33;;;8.20;99.90;;;;;;5025794;28;20296;-74
2022/09/25 02:22:28;;;;;;;14.32;3.95;;;8.10;99.90;;;;;;5014254;28;20126;-75
2022/09/25 02:25:13;;;;;;;7.15;3.08;;;8.10;99.90;;;;;;5009695;28;20041;-75
2022/09/25 02:27:38;;;;;;;7.00;3.30;;;8.10;99.90;;;;;;5026421;28;20376;-75
2022/09/25 02:30:05;;;;;;;11.02;3.42;;;8.00;99.90;;;;;;5010513;28;20045;-75
2022/09/25 02:32:32;;;;;;;7.18;2.90;;;8.00;99.90;;;;;;4992770;28;20041;-75
2022/09/25 02:34:59;;;;;;;8.30;3.17;;;8.00;99.90;;;;;;5012761;28;20518;-75
2022/09/25 02:37:25;;;;;;;9.15;2.85;;;8.00;99.90;;;;;;5022778;28;20482;-75
2022/09/25 02:39:57;;;;;;;7.10;3.17;;;7.90;99.90;;;;;;5006213;28;20042;-75
2022/09/25 02:42:44;;;;;;;12.82;3.22;;;7.90;99.90;;;;;;5017942;28;20682;-75
2022/09/25 02:45:18;;;;;;;10.00;3.33;;;7.90;99.90;;;;;;5001306;28;20056;-76
2022/09/25 02:47:50;;;;;;;8.90;3.50;;;7.90;99.90;;;;;;5024772;28;20064;-75
2022/09/25 02:50:39;;;;;;;7.27;3.20;;;7.80;99.90;;;;;;5024399;28;20079;-76
2022/09/25 02:53:11;;;;;;;8.30;3.25;;;7.80;99.90;;;;;;5005023;28;20041;-75
2022/09/25 02:55:58;;;;;;;9.73;3.47;;;7.80;99.90;;;;;;5006528;28;20080;-75
2022/09/25 02:58:49;;;;;;;8.23;3.53;;;7.70;99.90;;;;;;5001202;28;20037;-75
2022/09/25 03:01:19;;;;;;;7.88;3.00;;;7.70;99.90;;;;;;4999774;28;20735;-75
2022/09/25 03:03:48;;;;;;;7.55;2.70;;;7.70;99.90;;;;;;5022379;28;20108;-74
2022/09/25 03:06:14;;;;;;;9.13;2.92;;;7.70;99.90;;;;;;5023370;28;20040;-75
2022/09/25 03:08:45;;;;;;;10.30;3.30;;;7.70;99.90;;;;;;5021917;28;20565;-75
2022/09/25 03:11:16;;;;;;;7.60;3.08;;;7.70;99.90;;;;;;5022394;28;20033;-75
2022/09/25 03:13:43;;;;;;;8.77;3.10;;;7.70;99.90;;;;;;5006291;28;20406;-75
2022/09/25 03:16:30;;;;;;;7.65;3.08;;;7.70;99.90;;;;;;5006084;28;20030;-75
2022/09/25 03:18:55;;;;;;;7.95;3.30;;;7.80;99.90;;;;;;5003390;28;20034;-75
2022/09/25 03:21:21;;;;;;;7.93;3.05;;;7.70;99.90;;;;;;5007291;28;20044;-75
2022/09/25 03:23:47;;;;;;;10.02;3.47;;;7.70;99.90;;;;;;5008792;28;20069;-75
2022/09/25 03:26:13;;;;;;;12.77;3.42;;;7.70;99.90;;;;;;5020825;28;20125;-75
2022/09/25 03:28:39;;;;;;;6.07;3.45;;;7.70;99.90;;;;;;5008774;28;20056;-75
2022/09/25 03:31:09;;;;;;;5.68;2.85;;;7.70;99.90;;;;;;5010084;28;20052;-75
2022/09/25 03:33:44;;;;;;;8.82;3.30;;;7.70;99.90;;;;;;5024191;28;20048;-75
2022/09/25 03:36:17;;;;;;;10.18;3.03;;;7.70;99.90;;;;;;5025250;28;21830;-75
2022/09/25 03:38:45;;;;;;;12.15;3.45;;;7.70;99.90;;;;;;5021429;28;20116;-75
2022/09/25 03:41:12;;;;;;;7.85;3.15;;;7.60;99.90;;;;;;5022339;28;20564;-75
2022/09/25 03:43:41;;;;;;;7.20;2.90;;;7.60;99.90;;;;;;5022673;28;20034;-75
2022/09/25 03:46:12;;;;;;;11.82;3.40;;;7.60;99.90;;;;;;5024726;28;20231;-75
2022/09/25 03:48:39;;;;;;;8.32;3.17;;;7.60;99.90;;;;;;5024353;28;20124;-74
2022/09/25 03:51:05;;;;;;;6.78;3.28;;;7.70;99.90;;;;;;5029088;28;20042;-75
2022/09/25 03:53:35;;;;;;;6.00;3.25;;;7.70;99.90;;;;;;5006024;28;20105;-75
2022/09/25 03:56:07;;;;;;;10.85;3.40;;;7.60;99.90;;;;;;5015233;28;20033;-75
2022/09/25 03:58:33;;;;;;;6.85;3.00;;;7.70;99.90;;;;;;5033000;28;20033;-74
2022/09/25 04:01:00;;;;;;;7.95;2.97;;;7.70;99.90;;;;;;5029264;28;20045;-75
2022/09/25 04:03:31;;;;;;;8.82;3.15;;;7.70;99.90;;;;;;5026343;28;20102;-75
2022/09/25 04:06:00;;;;;;;8.82;3.72;;;7.60;99.90;;;;;;5006934;28;20038;-75
2022/09/25 04:08:27;;;;;;;7.15;2.72;;;7.60;99.90;;;;;;5029998;28;20398;-75
2022/09/25 04:10:55;;;;;;;5.80;3.00;;;7.60;99.90;;;;;;5030370;28;20045;-74
2022/09/25 04:13:25;;;;;;;16.95;2.92;;;7.60;99.90;;;;;;5025852;28;20118;-73
2022/09/25 04:15:51;;;;;;;12.40;3.40;;;7.60;99.90;;;;;;5030524;28;20046;-74
2022/09/25 04:18:17;;;;;;;7.78;3.15;;;7.60;99.90;;;;;;5026985;28;20124;-75
2022/09/25 04:20:43;;;;;;;11.00;3.15;;;7.60;99.90;;;;;;5030557;28;20033;-75
2022/09/25 04:23:10;;;;;;;6.18;2.95;;;7.60;99.90;;;;;;5012463;28;20053;-75
2022/09/25 04:25:36;;;;;;;9.85;3.00;;;7.60;99.90;;;;;;5012779;28;20049;-75
2022/09/25 04:28:03;;;;;;;6.45;2.58;;;7.60;99.90;;;;;;5004827;28;20068;-72
2022/09/25 04:30:29;;;;;;;15.85;3.20;;;7.60;99.90;;;;;;5030671;28;20045;-74
2022/09/25 04:35:40;;;;;;;9.90;3.15;;;7.60;99.90;;;;;;5032138;28;20054;-75
2022/09/25 04:38:06;;;;;;;7.85;3.10;;;7.60;99.90;;;;;;5031141;28;20044;-74
2022/09/25 04:40:32;;;;;;;8.55;2.85;;;7.60;99.90;;;;;;5014552;28;20065;-75
2022/09/25 04:43:01;;;;;;;10.45;3.10;;;7.60;99.90;;;;;;5013359;28;20049;-75
2022/09/25 04:45:28;;;;;;;8.63;3.08;;;7.60;99.90;;;;;;5015811;28;20120;-74
2022/09/25 04:47:55;;;;;;;6.75;2.67;;;7.60;99.90;;;;;;5028753;28;20046;-73
2022/09/25 04:50:25;;;;;;;8.68;2.90;;;7.60;99.90;;;;;;5029647;28;20052;-74
2022/09/25 04:52:51;;;;;;;10.75;3.30;;;7.60;99.90;;;;;;5029065;28;20049;-74
2022/09/25 04:55:23;;;;;;;9.68;2.60;;;7.60;99.90;;;;;;5013698;28;20489;-74
2022/09/25 04:57:57;;;;;;;5.72;2.60;;;7.60;99.90;;;;;;5025982;28;20104;-74
2022/09/25 05:00:25;;;;;;;11.80;3.55;;;7.60;99.90;;;;;;5012718;28;20475;-74
2022/09/25 05:02:53;;;;;;;9.00;2.83;;;7.60;99.90;;;;;;5030441;28;20041;-74
2022/09/25 05:05:19;;;;;;;9.07;2.80;;;7.60;99.90;;;;;;5028526;28;20041;-74
2022/09/25 05:07:55;;;;;;;10.23;2.85;;;7.50;99.90;;;;;;5029908;28;20103;-74
2022/09/25 05:10:23;;;;;;;7.78;2.80;;;7.50;99.90;;;;;;5027900;28;20037;-74
2022/09/25 05:12:57;;;;;;;12.45;2.85;;;7.50;99.90;;;;;;5029058;28;20045;-73
2022/09/25 05:15:24;;;;;;;8.52;3.30;;;7.60;99.90;;;;;;5023509;28;20065;-74
2022/09/25 05:18:02;;;;;;;11.45;3.08;;;7.50;99.90;;;;;;4994460;28;20045;-74
2022/09/25 05:20:28;;;;;;;8.25;3.00;;;7.50;99.90;;;;;;5028322;28;20820;-74
2022/09/25 05:22:56;;;;;;;7.55;3.92;;;7.60;99.90;;;;;;5027627;28;20129;-74
2022/09/25 05:25:23;;;;;;;12.88;4.03;;;7.60;99.90;;;;;;5011052;28;20045;-73
2022/09/25 05:27:50;;;;;;;7.18;3.10;;;7.60;99.90;;;;;;5025688;28;20041;-73
2022/09/25 05:30:19;;;;;;;6.55;3.22;;;7.60;99.90;;;;;;5012133;28;20050;-74
2022/09/25 05:32:49;;;;;;;6.72;3.08;;;7.60;99.90;;;;;;5027110;28;20830;-74
2022/09/25 05:35:20;;;;;;;6.78;3.10;;;7.60;99.90;;;;;;5026399;28;20099;-74
2022/09/25 05:37:46;;;;;;;7.15;3.13;;;7.60;99.90;;;;;;5027722;28;20937;-73
2022/09/25 05:40:14;;;;;;;11.35;3.25;;;7.50;99.90;;;;;;5027565;28;20498;-73
2022/09/25 05:42:42;;;;;;;6.05;2.72;;;7.50;99.90;;;;;;4996056;28;20096;-74
2022/09/25 05:45:11;;;;;;;5.43;2.83;;;7.50;99.90;;;;;;4993643;28;20047;-74
2022/09/25 05:47:38;;;;;;;5.68;3.50;;;7.60;99.90;;;;;;5009297;28;20038;-74
2022/09/25 05:50:05;;;;;;;9.63;2.88;;;7.60;99.90;;;;;;5008705;28;20041;-74
2022/09/25 05:52:31;;;;;;;2.95;2.20;;;7.60;99.90;;;;;;4993315;28;20046;-74
2022/09/25 05:54:57;;;;;;;6.13;2.85;;;7.60;99.90;;;;;;5026212;28;20548;-74
2022/09/25 05:57:23;;;;;;;10.73;3.00;;;7.60;99.90;;;;;;5028113;28;20120;-74
2022/09/25 05:59:49;;;;;;;4.75;3.25;;;7.60;99.90;;;;;;5027237;28;20049;-74
2022/09/25 06:02:15;;;;;;;13.77;4.18;;;7.60;99.90;;;;;;4992117;28;20314;-74
2022/09/25 06:04:41;;;;;;;9.02;3.80;;;7.60;99.90;;;;;;5011056;28;20056;-74
2022/09/25 06:07:10;;;;;;;11.48;3.63;;;7.60;99.90;;;;;;4993734;28;20487;-73
2022/09/25 06:09:36;;;;;;;10.30;2.95;;;7.60;99.90;;;;;;5027623;28;20092;-74
2022/09/25 06:12:02;;;;;;;10.02;3.58;;;7.70;99.90;;;;;;5018476;28;20578;-73
2022/09/25 06:14:29;;;;;;;10.95;4.47;;;7.70;99.90;;;;;;5010643;28;20038;-74
2022/09/25 06:16:55;;;;;;;18.20;8.98;;;7.70;99.90;;;;;;5006393;28;20037;-74
2022/09/25 06:19:21;;;;;;;28.80;11.98;;;7.70;99.90;;;;;;5009482;28;20092;-73
2022/09/25 06:21:46;;;;;;;16.80;7.85;;;7.70;99.90;;;;;;5026184;28;20034;-74
2022/09/25 06:24:12;;;;;;;14.77;7.30;;;7.70;99.90;;;;;;5021311;28;20046;-74
2022/09/25 06:26:39;;;;;;;15.90;8.23;;;7.80;99.90;;;;;;5010250;28;20072;-74
2022/09/25 06:29:06;;;;;;;20.65;6.85;;;7.80;99.90;;;;;;5020240;28;20121;-74
2022/09/25 06:31:33;;;;;;;11.60;5.47;;;7.90;99.90;;;;;;5004813;28;20077;-74
2022/09/25 06:34:03;;;;;;;13.40;5.35;;;8.00;99.90;;;;;;5022078;28;20570;-74
2022/09/25 06:36:28;;;;;;;17.55;4.10;;;8.10;99.90;;;;;;5023680;28;20045;-74
2022/09/25 06:38:55;;;;;;;11.90;3.38;;;8.20;99.90;;;;;;5023004;28;20479;-74
2022/09/25 06:41:22;;;;;;;6.28;3.17;;;8.30;99.90;;;;;;5022633;28;20060;-74
2022/09/25 06:43:49;;;;;;;11.32;3.30;;;8.50;99.90;;;;;;4988535;28;20033;-74
2022/09/25 06:46:17;;;;;;;6.32;2.58;;;8.60;99.90;;;;;;4993330;28;20045;-74
2022/09/25 06:48:43;;;;;;;7.60;3.00;;;8.60;99.90;;;;;;4993152;28;20056;-74
2022/09/25 06:51:09;;;;;;;8.25;2.63;;;8.70;99.90;;;;;;4993247;28;20041;-74
2022/09/25 06:53:35;;;;;;;7.50;2.58;;;8.70;99.90;;;;;;5021900;28;20202;-73
2022/09/25 06:56:01;;;;;;;10.43;2.90;;;8.80;99.90;;;;;;4993818;28;20070;-74
2022/09/25 06:58:29;;;;;;;10.38;2.70;;;8.90;99.90;;;;;;5023675;28;20037;-74
2022/09/25 07:00:56;;;;;;;6.43;2.55;;;8.90;99.90;;;;;;5024988;28;20041;-74
2022/09/25 07:06:09;;;;;;;8.52;2.70;;;9.00;99.90;;;;;;5023549;28;20073;-74
2022/09/25 07:08:35;;;;;;;9.23;2.65;;;9.10;99.90;;;;;;5007702;28;20073;-74
2022/09/25 07:11:02;;;;;;;7.45;2.58;;;9.10;99.90;;;;;;5020720;28;20089;-74
2022/09/25 07:13:30;;;;;;;5.70;2.53;;;9.20;99.90;;;;;;5023885;28;20048;-73
2022/09/25 07:16:07;;;;;;;8.35;3.00;;;9.30;99.90;;;;;;5024377;28;20038;-74
2022/09/25 07:18:33;;;;;;;6.40;2.60;;;9.30;99.90;;;;;;4990372;28;20045;-74
2022/09/25 07:21:03;;;;;;;7.78;2.40;;;9.30;99.90;;;;;;5006808;28;20042;-74
2022/09/25 07:23:30;;;;;;;9.23;2.60;;;9.40;99.90;;;;;;4990964;28;20033;-74
2022/09/25 07:26:02;;;;;;;7.07;2.38;;;9.40;99.90;;;;;;5025835;28;20564;-74
2022/09/25 07:28:28;;;;;;;3.67;2.22;;;9.50;99.90;;;;;;5022073;28;20100;-74
2022/09/25 07:30:54;;;;;;;4.75;2.22;;;9.60;99.90;;;;;;5008760;28;20503;-74
2022/09/25 07:33:23;;;;;;;7.35;2.22;;;9.60;99.90;;;;;;5010501;28;20094;-74
2022/09/25 07:35:51;;;;;;;9.05;3.47;;;9.70;99.90;;;;;;5027191;28;20049;-75
2022/09/25 07:38:17;;;;;;;9.63;3.42;;;9.80;99.90;;;;;;5025252;28;20049;-75
2022/09/25 07:40:43;;;;;;;10.18;2.65;;;9.90;99.90;;;;;;5024290;28;20057;-74
2022/09/25 07:43:09;;;;;;;8.95;2.55;;;10.00;99.90;;;;;;5023318;28;20056;-74
2022/09/25 07:45:35;;;;;;;6.85;2.45;;;10.00;99.90;;;;;;5007704;28;20064;-74
2022/09/25 07:48:02;;;;;;;8.27;2.47;;;10.10;99.90;;;;;;5005574;28;20041;-74
2022/09/25 07:50:29;;;;;;;8.18;2.40;;;10.20;99.90;;;;;;5022583;28;20356;-73
2022/09/25 07:52:55;;;;;;;7.40;2.80;;;10.30;99.90;;;;;;5010297;28;20037;-74
2022/09/25 07:55:22;;;;;;;10.48;2.33;;;10.40;99.90;;;;;;4991106;28;20037;-74
2022/09/25 07:57:49;;;;;;;7.35;2.20;;;10.50;99.90;;;;;;5026290;28;20053;-74
2022/09/25 08:00:16;;;;;;;5.20;2.55;;;10.70;99.90;;;;;;5024041;28;20122;-74
2022/09/25 08:02:42;;;;;;;6.53;2.10;;;10.80;99.90;;;;;;4981442;28;20036;-74
2022/09/25 08:05:09;;;;;;;12.63;2.95;;;10.90;99.90;;;;;;5007954;28;20046;-74
2022/09/25 08:07:34;;;;;;;7.15;1.92;;;11.00;99.90;;;;;;5005774;28;20187;-73
2022/09/25 08:10:00;;;;;;;5.25;2.10;;;11.20;99.90;;;;;;5024195;28;20550;-74
2022/09/25 08:12:26;;;;;;;11.07;2.47;;;11.30;99.90;;;;;;5009058;28;20131;-74
2022/09/25 08:14:52;;;;;;;8.63;2.60;;;11.50;99.90;;;;;;5011008;28;20125;-74
2022/09/25 08:17:18;;;;;;;5.75;2.42;;;11.80;99.90;;;;;;5027949;28;20402;-73
2022/09/25 08:19:45;;;;;;;6.82;2.38;;;12.00;99.90;;;;;;5011970;28;20048;-74
2022/09/25 08:22:11;;;;;;;6.05;1.60;;;12.20;99.90;;;;;;5025070;28;20041;-74
2022/09/25 08:24:37;;;;;;;6.05;2.20;;;12.50;99.90;;;;;;5016968;28;20041;-73
2022/09/25 08:27:04;;;;;;;5.00;1.70;;;12.50;99.90;;;;;;5010606;28;20049;-74
2022/09/25 08:29:30;;;;;;;6.22;1.67;;;12.60;99.90;;;;;;5011358;28;20073;-74
2022/09/25 08:31:56;;;;;;;5.75;1.75;;;12.70;99.90;;;;;;5011487;28;20080;-74
2022/09/25 08:34:22;;;;;;;7.25;2.05;;;12.90;99.90;;;;;;5011823;28;20387;-74
2022/09/25 08:36:49;;;;;;;3.28;1.42;;;12.90;99.90;;;;;;4994728;28;20193;-74
2022/09/25 08:39:15;;;;;;;7.45;1.80;;;13.00;99.90;;;;;;4994911;28;20033;-74
2022/09/25 08:41:53;;;;;;;8.00;2.00;;;13.20;99.90;;;;;;5013444;28;20489;-73
2022/09/25 08:44:29;;;;;;;7.57;2.17;;;13.30;99.90;;;;;;5012426;28;20529;-74
2022/09/25 08:50:23;;;;;;;5.65;1.83;;;13.60;99.90;;;;;;5032091;28;20099;-74
2022/09/25 08:53:06;;;;;;;7.05;2.00;;;13.80;99.90;;;;;;5032067;28;20048;-74
2022/09/25 08:56:35;;;;;;;4.00;1.63;;;14.00;99.90;;;;;;5029544;28;20034;-74
2022/09/25 08:58:42;;;;;;;3.60;1.55;;;14.20;99.90;;;;;;5009545;28;20034;-74
2022/09/25 09:01:19;;;;;;;3.72;1.60;;;14.40;99.90;;;;;;5000209;28;20037;-74
2022/09/25 09:04:04;;;;;;;7.53;1.65;;;14.50;99.90;;;;;;4991524;28;20069;-74
2022/09/25 09:06:32;;;;;;;6.80;1.95;;;14.70;99.90;;;;;;5029031;28;20034;-74
2022/09/25 09:09:04;;;;;;;2.08;1.30;;;14.80;99.90;;;;;;5011051;28;20048;-74
2022/09/25 09:11:38;;;;;;;5.07;1.80;;;14.90;99.90;;;;;;5012852;28;20041;-75
2022/09/25 09:14:09;;;;;;;9.45;1.55;;;14.90;99.90;;;;;;5026809;28;20354;-75
2022/09/25 09:16:59;;;;;;;4.28;1.25;;;15.00;99.90;;;;;;5011947;28;20029;-74
2022/09/25 09:19:26;;;;;;;4.53;1.25;;;15.10;99.90;;;;;;5028807;28;20045;-75
2022/09/25 09:22:13;;;;;;;3.47;1.17;;;15.10;99.90;;;;;;5011411;28;20040;-74
2022/09/25 09:24:52;;;;;;;9.05;2.17;;;15.20;99.90;;;;;;4993621;28;20037;-74
2022/09/25 09:27:49;;;;;;;4.88;1.38;;;15.30;99.90;;;;;;5030258;28;20073;-74
2022/09/25 09:30:20;;;;;;;5.53;1.60;;;15.40;99.90;;;;;;4995224;28;20046;-74
2022/09/25 09:33:13;;;;;;;5.63;1.73;;;15.50;99.90;;;;;;5025917;28;20506;-74
2022/09/25 09:35:58;;;;;;;4.60;1.38;;;15.80;99.90;;;;;;5012268;28;20042;-75
2022/09/25 09:38:45;;;;;;;6.40;1.98;;;16.10;99.90;;;;;;5022779;28;20040;-75
2022/09/25 09:41:17;;;;;;;5.53;2.13;;;16.10;99.90;;;;;;5024417;28;20432;-75
2022/09/25 09:44:03;;;;;;;3.22;1.10;;;16.00;99.90;;;;;;5021837;28;20038;-74
2022/09/25 09:46:38;;;;;;;3.63;1.23;;;16.00;99.90;;;;;;5027696;28;20384;-75
2022/09/25 09:49:43;;;;;;;6.80;1.10;;;16.10;99.90;;;;;;4989624;28;20406;-75
2022/09/25 09:52:34;;;;;;;5.03;1.42;;;16.10;99.90;;;;;;4993616;28;20418;-75
2022/09/25 09:55:25;;;;;;;4.82;1.38;;;16.00;99.90;;;;;;5021249;28;20034;-75
2022/09/25 09:57:55;;;;;;;6.00;1.33;;;16.00;99.90;;;;;;5017805;28;20045;-75
2022/09/25 10:00:23;;;;;;;3.75;1.20;;;16.20;99.90;;;;;;5025301;28;20100;-74
2022/09/25 10:03:11;;;;;;;4.50;1.67;;;16.00;99.90;;;;;;5026288;28;20045;-75
2022/09/25 10:05:42;;;;;;;4.60;1.20;;;16.10;99.90;;;;;;5030247;28;20132;-75
2022/09/25 10:08:09;;;;;;;2.17;0.98;;;16.20;99.90;;;;;;5029120;28;20068;-74
2022/09/25 10:10:41;;;;;;;3.28;1.38;;;16.30;99.90;;;;;;4985374;28;20051;-74
2022/09/25 10:13:22;;;;;;;5.68;1.67;;;16.50;99.90;;;;;;5013161;28;20508;-75
2022/09/25 10:15:56;;;;;;;6.15;1.20;;;16.60;99.90;;;;;;5006434;28;20096;-75
2022/09/25 10:18:28;;;;;;;6.40;1.55;;;16.60;99.90;;;;;;5003204;28;20042;-75
2022/09/25 10:21:00;;;;;;;4.40;1.38;;;16.50;99.90;;;;;;5023303;28;20037;-75
2022/09/25 10:23:38;;;;;;;3.67;1.60;;;16.30;99.90;;;;;;5004452;28;20103;-75
2022/09/25 10:26:30;;;;;;;3.50;1.77;;;16.10;99.90;;;;;;5023052;28;20046;-74
2022/09/25 10:28:58;;;;;;;4.85;1.20;;;16.00;99.90;;;;;;5007108;28;20042;-75
2022/09/25 10:31:32;;;;;;;5.47;1.30;;;15.90;99.90;;;;;;5026720;28;20521;-75
2022/09/25 10:34:12;;;;;;;4.60;1.13;;;15.60;99.90;;;;;;5004181;28;20056;-75
2022/09/25 10:36:42;;;;;;;2.45;1.10;;;15.30;99.90;;;;;;5018862;28;20111;-75
2022/09/25 10:39:33;;;;;;;1.42;0.85;;;15.00;99.90;;;;;;5001803;28;20037;-75
2022/09/25 10:42:01;;;;;;;1.05;0.70;;;14.70;99.90;;;;;;5009834;28;20103;-75
2022/09/25 10:44:32;;;;;;;3.00;1.33;;;14.40;99.90;;;;;;5029134;28;20042;-75
2022/09/25 10:50:19;;;;;;;3.13;1.10;;;14.10;99.90;;;;;;5011256;28;20242;-75
2022/09/25 10:52:51;;;;;;;4.78;1.02;;;14.00;99.90;;;;;;5028141;28;20037;-73
2022/09/25 10:55:26;;;;;;;4.05;0.95;;;13.70;99.90;;;;;;5022295;28;20041;-75
2022/09/25 10:58:20;;;;;;;1.25;0.70;;;13.90;99.90;;;;;;5013772;28;20046;-74
2022/09/25 11:00:49;;;;;;;2.90;0.82;;;13.90;99.90;;;;;;5027739;28;20282;-74
2022/09/25 11:03:31;;;;;;;3.55;1.00;;;13.80;99.90;;;;;;5009956;28;20132;-75
2022/09/25 11:06:04;;;;;;;2.70;1.17;;;13.90;99.90;;;;;;5026508;28;20041;-74
2022/09/25 11:08:37;;;;;;;1.65;0.95;;;13.80;99.90;;;;;;5023452;28;20120;-75
2022/09/25 11:11:06;;;;;;;2.65;0.77;;;13.80;99.90;;;;;;5022694;28;20045;-75
2022/09/25 11:13:47;;;;;;;3.80;1.15;;;13.90;99.90;;;;;;5008724;28;20483;-75
2022/09/25 11:16:13;;;;;;;2.17;0.88;;;13.90;99.90;;;;;;4997130;28;20053;-75
2022/09/25 11:18:44;;;;;;;3.00;1.05;;;14.00;99.90;;;;;;5022859;28;20045;-74
2022/09/25 11:21:20;;;;;;;2.05;1.40;;;14.00;99.90;;;;;;5022265;28;20034;-74
2022/09/25 11:23:54;;;;;;;1.75;1.30;;;14.10;99.90;;;;;;5004525;28;20033;-74
2022/09/25 11:26:26;;;;;;;1.92;1.02;;;14.10;99.90;;;;;;5020745;28;20081;-75
2022/09/25 11:28:56;;;;;;;2.27;1.13;;;14.20;99.90;;;;;;5022412;28;20029;-74
2022/09/25 11:32:01;;;;;;;2.40;1.05;;;14.30;99.90;;;;;;5023054;28;20182;-75
2022/09/25 11:34:56;;;;;;;3.25;1.30;;;14.30;99.90;;;;;;4972332;28;20501;-74
2022/09/25 11:37:34;;;;;;;3.70;1.15;;;14.30;99.90;;;;;;5017587;28;20038;-74
2022/09/25 11:43:05;;;;;;;3.58;1.50;;;14.40;99.90;;;;;;5005888;28;20049;-74
2022/09/25 11:45:48;;;;;;;2.25;1.25;;;14.50;99.90;;;;;;5001306;28;20054;-74
2022/09/25 11:48:27;;;;;;;;;;;14.50;99.90;;;;;;4986608;28;20117;-73
2022/09/25 11:51:27;;;;;;;5.10;1.50;;;14.60;99.90;;;;;;4999290;28;19921;-74
2022/09/25 11:54:20;;;;;;;4.28;1.10;;;14.70;99.90;;;;;;5001964;28;20092;-74
2022/09/25 11:57:09;;;;;;;3.50;2.00;;;14.70;99.90;;;;;;5017339;28;20372;-74
2022/09/25 12:00:13;;;;;;;3.80;1.40;;;14.70;99.90;;;;;;5019052;28;20697;-74
2022/09/25 12:03:05;;;;;;;3.22;1.35;;;14.70;99.90;;;;;;5021834;28;20096;-73
2022/09/25 12:06:06;;;;;;;3.13;1.20;;;14.70;99.90;;;;;;5013873;28;20133;-74
2022/09/25 12:08:50;;;;;;;6.13;1.60;;;14.70;99.90;;;;;;4977448;28;20042;-74
2022/09/25 12:11:22;;;;;;;7.18;2.13;;;14.70;99.90;;;;;;5015110;28;20040;-73
2022/09/25 12:14:28;;;;;;;5.53;2.92;;;14.80;99.90;;;;;;4998651;28;20038;-74
2022/09/25 12:17:19;;;;;;;2.60;0.70;;;14.80;99.90;;;;;;4919053;28;20397;-74
2022/09/25 12:19:57;;;;;;;6.05;1.40;;;15.00;99.90;;;;;;5006476;28;20107;-74
2022/09/25 12:22:50;;;;;;;3.58;1.90;;;15.20;99.90;;;;;;5024931;28;20033;-74
2022/09/25 12:25:35;;;;;;;4.03;2.28;;;15.30;99.90;;;;;;5024545;28;20490;-73
2022/09/25 12:28:11;;;;;;;3.13;1.48;;;15.40;99.90;;;;;;5019878;28;20450;-74
2022/09/25 12:31:06;;;;;;;4.25;1.23;;;15.50;99.90;;;;;;4990828;28;20487;-74
2022/09/25 12:33:55;;;;;;;3.58;1.75;;;15.70;99.90;;;;;;5024733;28;20046;-74
2022/09/25 12:36:39;;;;;;;7.30;2.00;;;15.90;99.90;;;;;;5006107;28;20132;-74
2022/09/25 12:39:07;;;;;;;3.58;2.55;;;16.10;99.90;;;;;;5022844;28;20046;-74
2022/09/25 12:41:49;;;;;;;2.47;1.10;;;16.20;99.90;;;;;;5008618;28;20050;-74
2022/09/25 12:44:34;;;;;;;6.38;2.60;;;16.20;99.90;;;;;;5022108;28;20286;-74
2022/09/25 12:47:17;;;;;;;4.97;2.20;;;16.40;99.90;;;;;;5004717;28;20466;-74
2022/09/25 12:50:11;;;;;;;1.60;1.08;;;16.50;99.90;;;;;;4988882;28;20037;-74
2022/09/25 12:53:15;;;;;;;3.70;1.02;;;16.60;99.90;;;;;;5022819;28;20033;-75
2022/09/25 12:55:51;;;;;;;2.13;0.90;;;16.70;99.90;;;;;;4989425;28;20448;-75
2022/09/25 12:58:41;;;;;;;0.85;0.55;;;16.80;99.90;;;;;;5006158;28;20042;-75
2022/09/25 13:01:20;;;;;;;0.65;0.65;;;16.90;99.90;;;;;;4992571;28;20580;-74
2022/09/25 13:04:17;;;;;;;1.85;0.77;;;16.80;99.90;;;;;;4987772;28;20569;-75
2022/09/25 13:06:56;;;;;;;4.13;1.02;;;17.00;99.90;;;;;;5005204;28;20042;-74
2022/09/25 13:09:38;;;;;;;3.78;1.20;;;17.20;99.90;;;;;;4988873;28;20167;-75
2022/09/25 13:12:19;;;;;;;5.47;1.00;;;17.30;99.70;;;;;;5005742;28;20403;-75
2022/09/25 13:14:55;;;;;;;2.78;1.10;;;17.20;99.90;;;;;;5006254;28;20089;-74
2022/09/25 13:17:21;;;;;;;3.17;0.80;;;17.00;99.90;;;;;;4990268;28;20044;-74
2022/09/25 13:19:47;;;;;;;5.38;1.10;;;16.80;99.90;;;;;;5005352;28;20479;-74
2022/09/25 13:22:20;;;;;;;1.83;0.93;;;16.60;99.90;;;;;;4988775;28;20133;-75
2022/09/25 13:24:51;;;;;;;5.90;1.02;;;16.40;99.90;;;;;;4988032;28;20061;-75
2022/09/25 13:27:21;;;;;;;4.90;1.17;;;16.20;99.90;;;;;;5002564;28;20412;-75
2022/09/25 13:29:59;;;;;;;2.92;1.20;;;16.20;99.90;;;;;;4991373;28;20153;-75
2022/09/25 13:32:33;;;;;;;3.58;0.80;;;16.00;99.90;;;;;;4985501;28;20043;-75
2022/09/25 13:35:05;;;;;;;2.10;1.13;;;15.90;99.90;;;;;;4993167;28;20415;-74
2022/09/25 13:37:33;;;;;;;;;;;15.70;99.90;;;;;;5003731;28;20108;-75
2022/09/25 13:42:50;;;;;;;3.40;1.08;;;15.50;99.90;;;;;;5020910;28;20048;-74